Aviation Digital Data Service (ADDS)

Output produced by METARs form (2219 UTC 01 October 2014)
found at http://aviationweather.gov/adds/metars/
 
KPWM 012000Z 0120/0218 02008KT P6SM OVC015 
     TEMPO 0121/0124 4SM -SHRA BR OVC010 
     FM020000 04007KT 4SM -DZ BR SCT006 OVC010 
     FM020500 03012KT 3SM -DZ BR SCT003 OVC006 
     FM020900 02011KT 2SM BR OVC003 
     FM021300 03011KT P6SM OVC015